sensor_id;sensor_type;location;lat;lon;timestamp;P1;durP1;ratioP1;P2;durP2;ratioP2
70199;SDS011;57587;55.688;37.600;2023-03-21T00:01:30;6.88;;;4.15;;
70199;SDS011;57587;55.688;37.600;2023-03-21T00:03:57;10.43;;;4.18;;
70199;SDS011;57587;55.688;37.600;2023-03-21T00:06:25;6.13;;;3.80;;
70199;SDS011;57587;55.688;37.600;2023-03-21T00:08:52;8.17;;;4.43;;
70199;SDS011;57587;55.688;37.600;2023-03-21T00:11:19;8.65;;;4.13;;
70199;SDS011;57587;55.688;37.600;2023-03-21T00:13:47;8.52;;;4.30;;
70199;SDS011;57587;55.688;37.600;2023-03-21T00:16:16;6.85;;;4.00;;
70199;SDS011;57587;55.688;37.600;2023-03-21T00:18:52;7.65;;;4.38;;
70199;SDS011;57587;55.688;37.600;2023-03-21T00:21:20;7.80;;;3.67;;
70199;SDS011;57587;55.688;37.600;2023-03-21T00:24:13;6.95;;;4.38;;
70199;SDS011;57587;55.688;37.600;2023-03-21T00:26:40;8.70;;;4.05;;
70199;SDS011;57587;55.688;37.600;2023-03-21T00:29:08;9.93;;;4.30;;
70199;SDS011;57587;55.688;37.600;2023-03-21T00:31:35;8.25;;;4.47;;
70199;SDS011;57587;55.688;37.600;2023-03-21T00:34:02;8.37;;;4.00;;
70199;SDS011;57587;55.688;37.600;2023-03-21T00:36:29;6.80;;;3.67;;
70199;SDS011;57587;55.688;37.600;2023-03-21T00:38:57;9.32;;;4.95;;
70199;SDS011;57587;55.688;37.600;2023-03-21T00:41:26;7.40;;;4.00;;
70199;SDS011;57587;55.688;37.600;2023-03-21T00:44:08;8.00;;;3.75;;
70199;SDS011;57587;55.688;37.600;2023-03-21T00:46:37;9.03;;;4.13;;
70199;SDS011;57587;55.688;37.600;2023-03-21T00:49:25;10.18;;;4.32;;
70199;SDS011;57587;55.688;37.600;2023-03-21T00:51:53;7.85;;;4.35;;
70199;SDS011;57587;55.688;37.600;2023-03-21T00:54:23;6.72;;;4.20;;
70199;SDS011;57587;55.688;37.600;2023-03-21T00:56:50;7.78;;;4.80;;
70199;SDS011;57587;55.688;37.600;2023-03-21T00:59:17;10.10;;;4.53;;
70199;SDS011;57587;55.688;37.600;2023-03-21T01:01:44;9.85;;;4.32;;
70199;SDS011;57587;55.688;37.600;2023-03-21T01:04:12;7.32;;;4.47;;
70199;SDS011;57587;55.688;37.600;2023-03-21T01:06:42;9.85;;;4.50;;
70199;SDS011;57587;55.688;37.600;2023-03-21T01:09:15;11.48;;;4.78;;
70199;SDS011;57587;55.688;37.600;2023-03-21T01:11:44;10.83;;;4.70;;
70199;SDS011;57587;55.688;37.600;2023-03-21T01:14:11;9.98;;;5.25;;
70199;SDS011;57587;55.688;37.600;2023-03-21T01:16:51;12.27;;;5.40;;
70199;SDS011;57587;55.688;37.600;2023-03-21T01:19:20;11.98;;;5.75;;
70199;SDS011;57587;55.688;37.600;2023-03-21T01:22:06;12.70;;;5.28;;
70199;SDS011;57587;55.688;37.600;2023-03-21T01:24:34;8.07;;;4.87;;
70199;SDS011;57587;55.688;37.600;2023-03-21T01:27:12;11.43;;;4.95;;
70199;SDS011;57587;55.688;37.600;2023-03-21T01:29:39;11.70;;;4.75;;
70199;SDS011;57587;55.688;37.600;2023-03-21T01:32:06;12.30;;;5.13;;
70199;SDS011;57587;55.688;37.600;2023-03-21T01:34:33;8.75;;;4.55;;
70199;SDS011;57587;55.688;37.600;2023-03-21T01:37:00;12.17;;;4.73;;
70199;SDS011;57587;55.688;37.600;2023-03-21T01:39:29;11.40;;;4.90;;
70199;SDS011;57587;55.688;37.600;2023-03-21T01:41:59;11.82;;;4.93;;
70199;SDS011;57587;55.688;37.600;2023-03-21T01:44:27;7.82;;;4.63;;
70199;SDS011;57587;55.688;37.600;2023-03-21T01:46:54;12.45;;;5.65;;
70199;SDS011;57587;55.688;37.600;2023-03-21T01:49:46;13.83;;;5.33;;
70199;SDS011;57587;55.688;37.600;2023-03-21T01:52:20;11.63;;;5.35;;
70199;SDS011;57587;55.688;37.600;2023-03-21T01:55:05;14.60;;;6.22;;
70199;SDS011;57587;55.688;37.600;2023-03-21T01:57:50;13.73;;;5.13;;
70199;SDS011;57587;55.688;37.600;2023-03-21T02:00:55;12.93;;;6.30;;
70199;SDS011;57587;55.688;37.600;2023-03-21T02:03:33;12.70;;;6.53;;
70199;SDS011;57587;55.688;37.600;2023-03-21T02:06:38;13.07;;;5.70;;
70199;SDS011;57587;55.688;37.600;2023-03-21T02:09:34;12.60;;;6.25;;
70199;SDS011;57587;55.688;37.600;2023-03-21T02:12:11;11.10;;;5.53;;
70199;SDS011;57587;55.688;37.600;2023-03-21T02:14:39;12.85;;;6.22;;
70199;SDS011;57587;55.688;37.600;2023-03-21T02:29:57;11.50;;;6.10;;
70199;SDS011;57587;55.688;37.600;2023-03-21T02:41:32;12.60;;;5.97;;
70199;SDS011;57587;55.688;37.600;2023-03-21T02:44:20;10.65;;;5.32;;
70199;SDS011;57587;55.688;37.600;2023-03-21T02:47:02;9.47;;;5.20;;
70199;SDS011;57587;55.688;37.600;2023-03-21T02:52:08;12.90;;;5.20;;
70199;SDS011;57587;55.688;37.600;2023-03-21T02:54:54;8.85;;;5.15;;
70199;SDS011;57587;55.688;37.600;2023-03-21T02:57:29;13.95;;;6.18;;
70199;SDS011;57587;55.688;37.600;2023-03-21T03:00:09;9.77;;;5.50;;
70199;SDS011;57587;55.688;37.600;2023-03-21T03:02:45;11.13;;;5.70;;
70199;SDS011;57587;55.688;37.600;2023-03-21T03:05:17;11.20;;;5.22;;
70199;SDS011;57587;55.688;37.600;2023-03-21T03:10:41;13.73;;;5.82;;
70199;SDS011;57587;55.688;37.600;2023-03-21T03:13:15;10.70;;;5.70;;
70199;SDS011;57587;55.688;37.600;2023-03-21T03:18:32;9.13;;;5.60;;
70199;SDS011;57587;55.688;37.600;2023-03-21T03:21:10;10.88;;;5.38;;
70199;SDS011;57587;55.688;37.600;2023-03-21T03:24:06;10.32;;;5.97;;
70199;SDS011;57587;55.688;37.600;2023-03-21T03:29:34;10.60;;;6.35;;
70199;SDS011;57587;55.688;37.600;2023-03-21T03:34:36;10.20;;;5.65;;
70199;SDS011;57587;55.688;37.600;2023-03-21T03:37:10;11.48;;;5.80;;
70199;SDS011;57587;55.688;37.600;2023-03-21T03:39:45;13.37;;;5.27;;
70199;SDS011;57587;55.688;37.600;2023-03-21T03:42:20;12.38;;;5.55;;
70199;SDS011;57587;55.688;37.600;2023-03-21T03:45:12;9.25;;;5.00;;
70199;SDS011;57587;55.688;37.600;2023-03-21T03:50:29;12.00;;;6.35;;
70199;SDS011;57587;55.688;37.600;2023-03-21T03:53:07;9.70;;;5.50;;
70199;SDS011;57587;55.688;37.600;2023-03-21T03:55:50;9.20;;;5.72;;
70199;SDS011;57587;55.688;37.600;2023-03-21T03:58:22;12.95;;;6.07;;
70199;SDS011;57587;55.688;37.600;2023-03-21T04:01:02;12.35;;;6.00;;
70199;SDS011;57587;55.688;37.600;2023-03-21T04:03:30;11.43;;;5.38;;
70199;SDS011;57587;55.688;37.600;2023-03-21T04:06:13;12.90;;;4.90;;
70199;SDS011;57587;55.688;37.600;2023-03-21T04:08:41;14.63;;;5.45;;
70199;SDS011;57587;55.688;37.600;2023-03-21T04:11:10;10.30;;;5.70;;
70199;SDS011;57587;55.688;37.600;2023-03-21T04:13:44;10.13;;;5.20;;
70199;SDS011;57587;55.688;37.600;2023-03-21T04:16:18;10.82;;;5.32;;
70199;SDS011;57587;55.688;37.600;2023-03-21T04:18:45;13.77;;;6.00;;
70199;SDS011;57587;55.688;37.600;2023-03-21T04:21:16;17.52;;;6.30;;
70199;SDS011;57587;55.688;37.600;2023-03-21T04:23:43;15.25;;;5.97;;
70199;SDS011;57587;55.688;37.600;2023-03-21T04:26:11;19.08;;;8.95;;
70199;SDS011;57587;55.688;37.600;2023-03-21T04:28:46;19.02;;;11.15;;
70199;SDS011;57587;55.688;37.600;2023-03-21T04:31:46;12.77;;;6.27;;
70199;SDS011;57587;55.688;37.600;2023-03-21T04:34:16;11.27;;;5.75;;
70199;SDS011;57587;55.688;37.600;2023-03-21T04:36:47;12.55;;;5.50;;
70199;SDS011;57587;55.688;37.600;2023-03-21T04:39:15;13.00;;;5.95;;
70199;SDS011;57587;55.688;37.600;2023-03-21T04:41:46;10.77;;;5.95;;
70199;SDS011;57587;55.688;37.600;2023-03-21T04:44:14;12.40;;;5.67;;
70199;SDS011;57587;55.688;37.600;2023-03-21T04:46:42;11.65;;;5.65;;
70199;SDS011;57587;55.688;37.600;2023-03-21T04:49:11;11.27;;;6.20;;
70199;SDS011;57587;55.688;37.600;2023-03-21T04:51:38;12.07;;;5.82;;
70199;SDS011;57587;55.688;37.600;2023-03-21T04:54:10;12.10;;;5.80;;
70199;SDS011;57587;55.688;37.600;2023-03-21T04:56:40;14.87;;;6.20;;
70199;SDS011;57587;55.688;37.600;2023-03-21T04:59:09;17.48;;;6.60;;
70199;SDS011;57587;55.688;37.600;2023-03-21T05:01:38;12.25;;;7.00;;
70199;SDS011;57587;55.688;37.600;2023-03-21T05:04:08;19.13;;;6.03;;
70199;SDS011;57587;55.688;37.600;2023-03-21T05:06:36;11.15;;;6.05;;
70199;SDS011;57587;55.688;37.600;2023-03-21T05:09:03;12.43;;;6.70;;
70199;SDS011;57587;55.688;37.600;2023-03-21T05:11:33;11.40;;;6.28;;
70199;SDS011;57587;55.688;37.600;2023-03-21T05:14:04;14.05;;;6.68;;
70199;SDS011;57587;55.688;37.600;2023-03-21T05:16:38;14.07;;;6.25;;
70199;SDS011;57587;55.688;37.600;2023-03-21T05:19:15;11.80;;;7.10;;
70199;SDS011;57587;55.688;37.600;2023-03-21T05:21:44;15.27;;;7.00;;
70199;SDS011;57587;55.688;37.600;2023-03-21T05:24:18;17.80;;;7.22;;
70199;SDS011;57587;55.688;37.600;2023-03-21T05:26:48;14.40;;;6.45;;
70199;SDS011;57587;55.688;37.600;2023-03-21T05:29:18;13.45;;;6.53;;
70199;SDS011;57587;55.688;37.600;2023-03-21T05:31:52;13.88;;;7.60;;
70199;SDS011;57587;55.688;37.600;2023-03-21T05:34:19;14.70;;;6.53;;
70199;SDS011;57587;55.688;37.600;2023-03-21T05:36:47;14.77;;;7.20;;
70199;SDS011;57587;55.688;37.600;2023-03-21T05:39:15;14.98;;;6.70;;
70199;SDS011;57587;55.688;37.600;2023-03-21T05:41:52;13.30;;;7.05;;
70199;SDS011;57587;55.688;37.600;2023-03-21T05:44:20;12.38;;;6.63;;
70199;SDS011;57587;55.688;37.600;2023-03-21T05:46:47;14.60;;;6.90;;
70199;SDS011;57587;55.688;37.600;2023-03-21T05:49:17;26.73;;;7.97;;
70199;SDS011;57587;55.688;37.600;2023-03-21T05:52:00;13.15;;;7.38;;
70199;SDS011;57587;55.688;37.600;2023-03-21T05:54:27;13.20;;;6.72;;
70199;SDS011;57587;55.688;37.600;2023-03-21T05:56:55;12.30;;;6.57;;
70199;SDS011;57587;55.688;37.600;2023-03-21T05:59:57;12.97;;;6.43;;
70199;SDS011;57587;55.688;37.600;2023-03-21T06:02:26;13.93;;;6.85;;
70199;SDS011;57587;55.688;37.600;2023-03-21T06:04:55;14.55;;;6.25;;
70199;SDS011;57587;55.688;37.600;2023-03-21T06:07:22;11.40;;;6.28;;
70199;SDS011;57587;55.688;37.600;2023-03-21T06:09:50;13.45;;;6.97;;
70199;SDS011;57587;55.688;37.600;2023-03-21T06:12:17;14.17;;;6.93;;
70199;SDS011;57587;55.688;37.600;2023-03-21T06:15:05;12.27;;;6.97;;
70199;SDS011;57587;55.688;37.600;2023-03-21T06:17:51;14.50;;;7.40;;
70199;SDS011;57587;55.688;37.600;2023-03-21T06:20:19;12.98;;;7.15;;
70199;SDS011;57587;55.688;37.600;2023-03-21T06:22:51;17.90;;;7.30;;
70199;SDS011;57587;55.688;37.600;2023-03-21T06:25:18;14.73;;;6.73;;
70199;SDS011;57587;55.688;37.600;2023-03-21T06:27:45;13.15;;;6.95;;
70199;SDS011;57587;55.688;37.600;2023-03-21T06:30:13;14.20;;;6.78;;
70199;SDS011;57587;55.688;37.600;2023-03-21T06:32:55;16.95;;;7.10;;
70199;SDS011;57587;55.688;37.600;2023-03-21T06:35:22;14.30;;;7.30;;
70199;SDS011;57587;55.688;37.600;2023-03-21T06:37:49;12.47;;;6.97;;
70199;SDS011;57587;55.688;37.600;2023-03-21T06:40:20;13.50;;;6.63;;
70199;SDS011;57587;55.688;37.600;2023-03-21T06:42:47;13.40;;;7.00;;
70199;SDS011;57587;55.688;37.600;2023-03-21T06:45:17;12.20;;;6.97;;
70199;SDS011;57587;55.688;37.600;2023-03-21T06:47:44;14.55;;;7.57;;
70199;SDS011;57587;55.688;37.600;2023-03-21T06:50:31;20.10;;;7.20;;
70199;SDS011;57587;55.688;37.600;2023-03-21T06:52:58;13.77;;;6.85;;
70199;SDS011;57587;55.688;37.600;2023-03-21T06:55:29;13.45;;;7.72;;
70199;SDS011;57587;55.688;37.600;2023-03-21T06:57:58;12.93;;;7.35;;
70199;SDS011;57587;55.688;37.600;2023-03-21T07:00:26;13.55;;;7.32;;
70199;SDS011;57587;55.688;37.600;2023-03-21T07:02:53;20.43;;;8.13;;
70199;SDS011;57587;55.688;37.600;2023-03-21T07:05:23;14.60;;;7.35;;
70199;SDS011;57587;55.688;37.600;2023-03-21T07:07:50;12.52;;;8.70;;
70199;SDS011;57587;55.688;37.600;2023-03-21T07:10:17;17.75;;;7.97;;
70199;SDS011;57587;55.688;37.600;2023-03-21T07:12:51;14.30;;;7.72;;
70199;SDS011;57587;55.688;37.600;2023-03-21T07:15:20;13.47;;;7.00;;
70199;SDS011;57587;55.688;37.600;2023-03-21T07:17:49;11.27;;;7.40;;
70199;SDS011;57587;55.688;37.600;2023-03-21T07:20:16;12.23;;;7.30;;
70199;SDS011;57587;55.688;37.600;2023-03-21T07:22:44;12.88;;;7.38;;
70199;SDS011;57587;55.688;37.600;2023-03-21T07:25:12;15.52;;;7.90;;
70199;SDS011;57587;55.688;37.600;2023-03-21T07:27:39;12.20;;;7.50;;
70199;SDS011;57587;55.688;37.600;2023-03-21T07:30:08;14.65;;;7.97;;
70199;SDS011;57587;55.688;37.600;2023-03-21T07:32:36;16.65;;;7.50;;
70199;SDS011;57587;55.688;37.600;2023-03-21T07:35:09;13.45;;;7.30;;
70199;SDS011;57587;55.688;37.600;2023-03-21T07:37:39;14.93;;;7.82;;
70199;SDS011;57587;55.688;37.600;2023-03-21T07:40:07;13.03;;;7.07;;
70199;SDS011;57587;55.688;37.600;2023-03-21T07:42:39;18.83;;;8.65;;
70199;SDS011;57587;55.688;37.600;2023-03-21T07:45:21;14.20;;;7.75;;
70199;SDS011;57587;55.688;37.600;2023-03-21T07:47:53;15.32;;;7.65;;
70199;SDS011;57587;55.688;37.600;2023-03-21T07:50:20;14.45;;;8.18;;
70199;SDS011;57587;55.688;37.600;2023-03-21T07:52:50;17.43;;;6.80;;
70199;SDS011;57587;55.688;37.600;2023-03-21T07:55:19;9.95;;;6.50;;
70199;SDS011;57587;55.688;37.600;2023-03-21T07:57:49;12.38;;;6.57;;
70199;SDS011;57587;55.688;37.600;2023-03-21T08:00:25;11.05;;;6.13;;
70199;SDS011;57587;55.688;37.600;2023-03-21T08:02:53;12.02;;;7.35;;
70199;SDS011;57587;55.688;37.600;2023-03-21T08:05:26;14.57;;;6.70;;
70199;SDS011;57587;55.688;37.600;2023-03-21T08:07:55;11.82;;;7.03;;
70199;SDS011;57587;55.688;37.600;2023-03-21T08:10:23;14.15;;;6.80;;
70199;SDS011;57587;55.688;37.600;2023-03-21T08:12:50;10.52;;;6.50;;
70199;SDS011;57587;55.688;37.600;2023-03-21T08:15:17;15.27;;;6.80;;
70199;SDS011;57587;55.688;37.600;2023-03-21T08:17:44;10.20;;;7.03;;
70199;SDS011;57587;55.688;37.600;2023-03-21T08:20:14;12.32;;;6.20;;
70199;SDS011;57587;55.688;37.600;2023-03-21T08:22:43;11.82;;;6.82;;
70199;SDS011;57587;55.688;37.600;2023-03-21T08:25:11;12.05;;;6.88;;
70199;SDS011;57587;55.688;37.600;2023-03-21T08:27:40;12.48;;;6.93;;
70199;SDS011;57587;55.688;37.600;2023-03-21T08:30:11;12.10;;;7.10;;
70199;SDS011;57587;55.688;37.600;2023-03-21T08:32:40;13.38;;;7.40;;
70199;SDS011;57587;55.688;37.600;2023-03-21T08:35:08;20.17;;;7.72;;
70199;SDS011;57587;55.688;37.600;2023-03-21T08:37:37;13.90;;;7.85;;
70199;SDS011;57587;55.688;37.600;2023-03-21T08:40:06;12.93;;;7.75;;
70199;SDS011;57587;55.688;37.600;2023-03-21T08:42:37;11.00;;;7.10;;
70199;SDS011;57587;55.688;37.600;2023-03-21T08:45:05;14.77;;;7.40;;
70199;SDS011;57587;55.688;37.600;2023-03-21T08:47:33;19.40;;;7.57;;
70199;SDS011;57587;55.688;37.600;2023-03-21T08:50:00;10.70;;;6.60;;
70199;SDS011;57587;55.688;37.600;2023-03-21T08:52:29;11.38;;;7.07;;
70199;SDS011;57587;55.688;37.600;2023-03-21T08:54:56;11.30;;;6.57;;
70199;SDS011;57587;55.688;37.600;2023-03-21T08:57:23;13.40;;;6.32;;
70199;SDS011;57587;55.688;37.600;2023-03-21T08:59:50;10.93;;;6.20;;
70199;SDS011;57587;55.688;37.600;2023-03-21T09:02:17;13.40;;;6.50;;
70199;SDS011;57587;55.688;37.600;2023-03-21T09:04:44;11.68;;;6.57;;
70199;SDS011;57587;55.688;37.600;2023-03-21T09:07:12;11.30;;;6.37;;
70199;SDS011;57587;55.688;37.600;2023-03-21T09:09:40;12.80;;;6.68;;
70199;SDS011;57587;55.688;37.600;2023-03-21T09:12:07;10.63;;;6.22;;
70199;SDS011;57587;55.688;37.600;2023-03-21T09:14:35;12.38;;;6.40;;
70199;SDS011;57587;55.688;37.600;2023-03-21T09:17:02;14.80;;;6.53;;
70199;SDS011;57587;55.688;37.600;2023-03-21T09:19:29;9.40;;;6.30;;
70199;SDS011;57587;55.688;37.600;2023-03-21T09:21:57;11.13;;;6.85;;
70199;SDS011;57587;55.688;37.600;2023-03-21T09:24:25;11.35;;;7.05;;
70199;SDS011;57587;55.688;37.600;2023-03-21T09:26:52;11.90;;;6.13;;
70199;SDS011;57587;55.688;37.600;2023-03-21T09:29:20;10.10;;;6.47;;
70199;SDS011;57587;55.688;37.600;2023-03-21T09:31:48;10.27;;;5.50;;
70199;SDS011;57587;55.688;37.600;2023-03-21T09:34:15;10.77;;;5.90;;
70199;SDS011;57587;55.688;37.600;2023-03-21T09:36:42;9.70;;;6.05;;
70199;SDS011;57587;55.688;37.600;2023-03-21T09:39:10;9.50;;;5.45;;
70199;SDS011;57587;55.688;37.600;2023-03-21T09:47:29;10.63;;;6.50;;
70199;SDS011;57587;55.688;37.600;2023-03-21T09:50:10;9.52;;;6.15;;
70199;SDS011;57587;55.688;37.600;2023-03-21T09:55:24;13.07;;;6.40;;
70199;SDS011;57587;55.688;37.600;2023-03-21T09:58:03;9.80;;;6.23;;
70199;SDS011;57587;55.688;37.600;2023-03-21T10:00:52;9.73;;;6.45;;
70199;SDS011;57587;55.688;37.600;2023-03-21T10:03:34;8.05;;;7.07;;
70199;SDS011;57587;55.688;37.600;2023-03-21T10:06:09;8.10;;;6.55;;
70199;SDS011;57587;55.688;37.600;2023-03-21T10:08:42;8.07;;;5.72;;
70199;SDS011;57587;55.688;37.600;2023-03-21T10:16:46;7.38;;;5.13;;
70199;SDS011;57587;55.688;37.600;2023-03-21T10:19:20;7.65;;;5.15;;
70199;SDS011;57587;55.688;37.600;2023-03-21T10:21:49;8.43;;;5.05;;
70199;SDS011;57587;55.688;37.600;2023-03-21T10:24:27;7.77;;;5.43;;
70199;SDS011;57587;55.688;37.600;2023-03-21T10:26:57;8.98;;;5.75;;
70199;SDS011;57587;55.688;37.600;2023-03-21T10:29:26;8.10;;;5.75;;
70199;SDS011;57587;55.688;37.600;2023-03-21T10:31:58;9.98;;;6.00;;
70199;SDS011;57587;55.688;37.600;2023-03-21T10:34:35;8.63;;;5.80;;
70199;SDS011;57587;55.688;37.600;2023-03-21T10:37:07;11.43;;;5.80;;
70199;SDS011;57587;55.688;37.600;2023-03-21T10:39:40;8.43;;;5.65;;
70199;SDS011;57587;55.688;37.600;2023-03-21T10:42:27;10.95;;;6.40;;
70199;SDS011;57587;55.688;37.600;2023-03-21T10:44:57;8.38;;;5.68;;
70199;SDS011;57587;55.688;37.600;2023-03-21T10:47:25;9.40;;;6.50;;
70199;SDS011;57587;55.688;37.600;2023-03-21T10:50:04;9.10;;;6.93;;
70199;SDS011;57587;55.688;37.600;2023-03-21T10:52:45;9.35;;;5.60;;
70199;SDS011;57587;55.688;37.600;2023-03-21T10:55:22;10.10;;;6.03;;
70199;SDS011;57587;55.688;37.600;2023-03-21T10:57:58;11.50;;;6.40;;
70199;SDS011;57587;55.688;37.600;2023-03-21T11:00:46;10.02;;;5.97;;
70199;SDS011;57587;55.688;37.600;2023-03-21T11:03:58;9.10;;;6.23;;
70199;SDS011;57587;55.688;37.600;2023-03-21T11:06:16;9.18;;;6.13;;
70199;SDS011;57587;55.688;37.600;2023-03-21T11:09:00;9.65;;;6.32;;
70199;SDS011;57587;55.688;37.600;2023-03-21T11:11:34;7.97;;;4.60;;
70199;SDS011;57587;55.688;37.600;2023-03-21T11:14:05;7.63;;;5.25;;
70199;SDS011;57587;55.688;37.600;2023-03-21T11:16:36;8.37;;;5.27;;
70199;SDS011;57587;55.688;37.600;2023-03-21T11:19:16;9.13;;;5.40;;
70199;SDS011;57587;55.688;37.600;2023-03-21T11:21:58;10.88;;;5.70;;
70199;SDS011;57587;55.688;37.600;2023-03-21T11:24:31;8.60;;;4.80;;
70199;SDS011;57587;55.688;37.600;2023-03-21T11:26:59;9.02;;;5.25;;
70199;SDS011;57587;55.688;37.600;2023-03-21T11:29:39;13.20;;;5.50;;
70199;SDS011;57587;55.688;37.600;2023-03-21T11:34:56;7.72;;;4.97;;
70199;SDS011;57587;55.688;37.600;2023-03-21T11:45:57;11.23;;;5.70;;
70199;SDS011;57587;55.688;37.600;2023-03-21T11:48:43;10.90;;;4.88;;
70199;SDS011;57587;55.688;37.600;2023-03-21T11:56:57;16.30;;;4.63;;
70199;SDS011;57587;55.688;37.600;2023-03-21T12:02:35;9.52;;;5.22;;
70199;SDS011;57587;55.688;37.600;2023-03-21T12:06:09;7.30;;;4.88;;
70199;SDS011;57587;55.688;37.600;2023-03-21T12:24:53;6.77;;;4.37;;
70199;SDS011;57587;55.688;37.600;2023-03-21T12:32:49;5.93;;;3.88;;
70199;SDS011;57587;55.688;37.600;2023-03-21T12:38:22;7.83;;;4.70;;
70199;SDS011;57587;55.688;37.600;2023-03-21T12:46:49;8.63;;;4.57;;
70199;SDS011;57587;55.688;37.600;2023-03-21T12:52:06;8.63;;;4.20;;
70199;SDS011;57587;55.688;37.600;2023-03-21T12:57:57;7.15;;;4.63;;
70199;SDS011;57587;55.688;37.600;2023-03-21T13:00:34;6.28;;;4.30;;
70199;SDS011;57587;55.688;37.600;2023-03-21T13:06:10;7.77;;;4.30;;
70199;SDS011;57587;55.688;37.600;2023-03-21T13:11:16;8.20;;;4.60;;
70199;SDS011;57587;55.688;37.600;2023-03-21T13:16:29;7.45;;;4.70;;
70199;SDS011;57587;55.688;37.600;2023-03-21T13:26:48;8.77;;;4.20;;
70199;SDS011;57587;55.688;37.600;2023-03-21T13:29:27;7.18;;;4.13;;
70199;SDS011;57587;55.688;37.600;2023-03-21T13:32:04;11.10;;;4.97;;
70199;SDS011;57587;55.688;37.600;2023-03-21T13:34:37;7.75;;;4.45;;
70199;SDS011;57587;55.688;37.600;2023-03-21T13:37:08;8.05;;;5.10;;
70199;SDS011;57587;55.688;37.600;2023-03-21T13:39:42;7.85;;;4.30;;
70199;SDS011;57587;55.688;37.600;2023-03-21T13:42:16;8.77;;;4.10;;
70199;SDS011;57587;55.688;37.600;2023-03-21T13:44:54;8.13;;;4.07;;
70199;SDS011;57587;55.688;37.600;2023-03-21T13:50:35;7.15;;;4.32;;
70199;SDS011;57587;55.688;37.600;2023-03-21T13:53:18;8.18;;;3.78;;
70199;SDS011;57587;55.688;37.600;2023-03-21T13:55:56;9.45;;;4.50;;
70199;SDS011;57587;55.688;37.600;2023-03-21T14:01:58;6.78;;;4.07;;
70199;SDS011;57587;55.688;37.600;2023-03-21T14:04:09;7.03;;;4.38;;
70199;SDS011;57587;55.688;37.600;2023-03-21T14:07:01;6.85;;;4.13;;
70199;SDS011;57587;55.688;37.600;2023-03-21T14:09:39;6.57;;;4.30;;
70199;SDS011;57587;55.688;37.600;2023-03-21T14:12:17;10.27;;;4.87;;
70199;SDS011;57587;55.688;37.600;2023-03-21T14:14:50;6.18;;;3.90;;
70199;SDS011;57587;55.688;37.600;2023-03-21T14:17:35;6.35;;;4.18;;
70199;SDS011;57587;55.688;37.600;2023-03-21T14:20:13;9.02;;;4.75;;
70199;SDS011;57587;55.688;37.600;2023-03-21T14:22:45;8.88;;;4.68;;
70199;SDS011;57587;55.688;37.600;2023-03-21T14:25:15;7.27;;;4.03;;
70199;SDS011;57587;55.688;37.600;2023-03-21T14:27:48;7.97;;;4.63;;
70199;SDS011;57587;55.688;37.600;2023-03-21T14:32:57;8.07;;;4.65;;
70199;SDS011;57587;55.688;37.600;2023-03-21T14:35:42;7.65;;;4.43;;
70199;SDS011;57587;55.688;37.600;2023-03-21T14:38:22;7.20;;;4.00;;
70199;SDS011;57587;55.688;37.600;2023-03-21T14:40:52;7.28;;;4.57;;
70199;SDS011;57587;55.688;37.600;2023-03-21T14:43:24;9.00;;;4.97;;
70199;SDS011;57587;55.688;37.600;2023-03-21T14:45:53;9.48;;;4.45;;
70199;SDS011;57587;55.688;37.600;2023-03-21T14:48:29;12.23;;;4.20;;
70199;SDS011;57587;55.688;37.600;2023-03-21T14:51:02;7.27;;;4.57;;
70199;SDS011;57587;55.688;37.600;2023-03-21T14:53:37;10.00;;;4.85;;
70199;SDS011;57587;55.688;37.600;2023-03-21T14:56:16;8.70;;;5.00;;
70199;SDS011;57587;55.688;37.600;2023-03-21T14:58:47;6.22;;;4.43;;
70199;SDS011;57587;55.688;37.600;2023-03-21T15:01:20;11.07;;;4.70;;
70199;SDS011;57587;55.688;37.600;2023-03-21T15:03:58;8.63;;;4.90;;
70199;SDS011;57587;55.688;37.600;2023-03-21T15:06:31;9.30;;;5.05;;
70199;SDS011;57587;55.688;37.600;2023-03-21T15:08:59;8.02;;;4.72;;
70199;SDS011;57587;55.688;37.600;2023-03-21T15:11:37;12.27;;;5.30;;
70199;SDS011;57587;55.688;37.600;2023-03-21T15:14:06;10.05;;;5.20;;
70199;SDS011;57587;55.688;37.600;2023-03-21T15:16:34;10.97;;;4.23;;
70199;SDS011;57587;55.688;37.600;2023-03-21T15:19:02;11.18;;;5.25;;
70199;SDS011;57587;55.688;37.600;2023-03-21T15:21:32;8.75;;;5.30;;
70199;SDS011;57587;55.688;37.600;2023-03-21T15:24:05;7.68;;;4.57;;
70199;SDS011;57587;55.688;37.600;2023-03-21T15:26:42;9.45;;;4.57;;
70199;SDS011;57587;55.688;37.600;2023-03-21T15:29:11;8.77;;;5.47;;
70199;SDS011;57587;55.688;37.600;2023-03-21T15:31:40;13.05;;;4.45;;
70199;SDS011;57587;55.688;37.600;2023-03-21T15:34:22;9.35;;;4.75;;
70199;SDS011;57587;55.688;37.600;2023-03-21T15:36:56;9.10;;;5.22;;
70199;SDS011;57587;55.688;37.600;2023-03-21T15:39:30;12.25;;;5.55;;
70199;SDS011;57587;55.688;37.600;2023-03-21T15:44:48;9.45;;;5.15;;
70199;SDS011;57587;55.688;37.600;2023-03-21T15:52:55;9.10;;;4.85;;
70199;SDS011;57587;55.688;37.600;2023-03-21T15:55:27;11.23;;;4.83;;
70199;SDS011;57587;55.688;37.600;2023-03-21T15:58:03;9.18;;;4.60;;
70199;SDS011;57587;55.688;37.600;2023-03-21T16:00:39;11.75;;;5.68;;
70199;SDS011;57587;55.688;37.600;2023-03-21T16:03:21;10.73;;;4.93;;
70199;SDS011;57587;55.688;37.600;2023-03-21T16:06:05;9.80;;;5.50;;
70199;SDS011;57587;55.688;37.600;2023-03-21T16:08:37;9.43;;;5.23;;
70199;SDS011;57587;55.688;37.600;2023-03-21T16:13:42;9.02;;;5.10;;
70199;SDS011;57587;55.688;37.600;2023-03-21T16:16:13;10.15;;;5.68;;
70199;SDS011;57587;55.688;37.600;2023-03-21T16:18:43;7.82;;;4.85;;
70199;SDS011;57587;55.688;37.600;2023-03-21T16:21:13;7.20;;;5.43;;
70199;SDS011;57587;55.688;37.600;2023-03-21T16:23:44;14.40;;;5.13;;
70199;SDS011;57587;55.688;37.600;2023-03-21T16:26:12;10.18;;;5.00;;
70199;SDS011;57587;55.688;37.600;2023-03-21T16:28:43;9.77;;;5.00;;
70199;SDS011;57587;55.688;37.600;2023-03-21T16:31:15;10.23;;;4.53;;
70199;SDS011;57587;55.688;37.600;2023-03-21T16:33:47;9.10;;;4.83;;
70199;SDS011;57587;55.688;37.600;2023-03-21T16:36:16;11.45;;;5.00;;
70199;SDS011;57587;55.688;37.600;2023-03-21T16:38:46;11.40;;;5.05;;
70199;SDS011;57587;55.688;37.600;2023-03-21T16:41:15;9.70;;;5.10;;
70199;SDS011;57587;55.688;37.600;2023-03-21T16:43:42;11.05;;;5.55;;
70199;SDS011;57587;55.688;37.600;2023-03-21T16:46:20;10.17;;;5.47;;
70199;SDS011;57587;55.688;37.600;2023-03-21T16:48:50;9.13;;;4.65;;
70199;SDS011;57587;55.688;37.600;2023-03-21T16:51:22;11.77;;;5.70;;
70199;SDS011;57587;55.688;37.600;2023-03-21T16:53:55;8.25;;;5.55;;
70199;SDS011;57587;55.688;37.600;2023-03-21T16:56:28;10.48;;;5.70;;
70199;SDS011;57587;55.688;37.600;2023-03-21T16:58:59;11.63;;;5.13;;
70199;SDS011;57587;55.688;37.600;2023-03-21T17:01:26;10.75;;;5.53;;
70199;SDS011;57587;55.688;37.600;2023-03-21T17:03:58;10.75;;;5.40;;
70199;SDS011;57587;55.688;37.600;2023-03-21T17:06:26;8.63;;;5.32;;
70199;SDS011;57587;55.688;37.600;2023-03-21T17:08:56;12.32;;;6.45;;
70199;SDS011;57587;55.688;37.600;2023-03-21T17:11:24;9.70;;;5.83;;
70199;SDS011;57587;55.688;37.600;2023-03-21T17:13:53;11.82;;;5.60;;
70199;SDS011;57587;55.688;37.600;2023-03-21T17:16:22;9.07;;;5.80;;
70199;SDS011;57587;55.688;37.600;2023-03-21T17:18:52;13.70;;;6.35;;
70199;SDS011;57587;55.688;37.600;2023-03-21T17:21:22;10.75;;;5.82;;
70199;SDS011;57587;55.688;37.600;2023-03-21T17:23:52;10.80;;;6.50;;